PWSweather.com
Personal Weather Stations
Station Observations
CW9610
Rural Jefferson County, Mclouth, KS 66054

Rural Jefferson CountyMclouth, KS 66054

Lat: 39.1947, Lon: -95.238

Elevation: 1151

Station Type: Davis VP2

http://mclwx.info

Latest ConditionsUpdated 8:00:02 AM CST Friday, Mar 6, 2015
Currently Today's Max Today's Min Today's Average
Temperature 31.3°F-0.4°C 31.3°F-0.4°C 23.0°F-5.0°C 26.0°F-3.3°C
Dew Point 21.6°F-5.8°C 21.6°F-5.8°C 14.0°F-10.0°C 17.7°F-7.9°C
Winds 8.0 mph SW12.9 kmh SW 10.0 mph SW16.1 kmh SW - 7.1 mph 11.4 kmh
Wind Gusts 15.0 mph24.1 kmh 18.0 mph29.0 kmh - -
Humidity 67% 74% 67% 70%
Pressure 30.36 in1028.1 mb 30.48 in1032.2 mb 30.35 in1027.8 mb -
Hour Temp Dew Point Humidity Winds Wind Gusts Pressure Precip Precip Rate Daily Precip Total
08:00 AM 31.3°F-0.4°C 21.6°F-5.8°C 67% 8.0 mph SW12.9 kmh SW 15.0 mph24.1 kmh 30.36 in1028.1 mb 0.00 in0.0 mm 0.00 in/hr0.0 mm/hr 0.00 in0.0 mm
07:45 AM 30.5°F-0.8°C 21.2°F-6.0°C 68% 9.0 mph SW14.5 kmh SW 15.0 mph24.1 kmh 30.35 in1027.8 mb 0.00 in0.0 mm 0.00 in/hr0.0 mm/hr 0.00 in0.0 mm
07:30 AM 29.7°F-1.3°C 20.8°F-6.2°C 69% 8.0 mph SW12.9 kmh SW 14.0 mph22.5 kmh 30.35 in1027.8 mb 0.00 in0.0 mm 0.00 in/hr0.0 mm/hr 0.00 in0.0 mm
07:15 AM 29.2°F-1.6°C 20.3°F-6.5°C 69% 9.0 mph SW14.5 kmh SW 15.0 mph24.1 kmh 30.35 in1027.8 mb 0.00 in0.0 mm 0.00 in/hr0.0 mm/hr 0.00 in0.0 mm
07:00 AM 29.0°F-1.7°C 20.1°F-6.6°C 69% 9.0 mph SW14.5 kmh SW 13.0 mph20.9 kmh 30.35 in1027.8 mb 0.00 in0.0 mm 0.00 in/hr0.0 mm/hr 0.00 in0.0 mm
06:45 AM 29.2°F-1.6°C 19.9°F-6.7°C 68% 10.0 mph SW16.1 kmh SW 14.0 mph22.5 kmh 30.35 in1027.8 mb 0.00 in0.0 mm 0.00 in/hr0.0 mm/hr 0.00 in0.0 mm
06:30 AM 29.3°F-1.5°C 20.0°F-6.7°C 68% 10.0 mph SW16.1 kmh SW 16.0 mph25.7 kmh 30.35 in1027.8 mb 0.00 in0.0 mm 0.00 in/hr0.0 mm/hr 0.00 in0.0 mm
06:15 AM 29.1°F-1.6°C 19.8°F-6.8°C 68% 9.0 mph SSW14.5 kmh SSW 18.0 mph29.0 kmh 30.35 in1027.8 mb 0.00 in0.0 mm 0.00 in/hr0.0 mm/hr 0.00 in0.0 mm
06:00 AM 28.2°F-2.1°C 19.7°F-6.8°C 70% 9.0 mph SSW14.5 kmh SSW 13.0 mph20.9 kmh 30.35 in1027.8 mb 0.00 in0.0 mm 0.00 in/hr0.0 mm/hr 0.00 in0.0 mm
05:45 AM 27.3°F-2.6°C 19.1°F-7.2°C 71% 7.0 mph SSW11.3 kmh SSW 13.0 mph20.9 kmh 30.35 in1027.8 mb 0.00 in0.0 mm 0.00 in/hr0.0 mm/hr 0.00 in0.0 mm
05:30 AM 26.8°F-2.9°C 18.7°F-7.4°C 71% 8.0 mph SSW12.9 kmh SSW 15.0 mph24.1 kmh 30.35 in1027.8 mb 0.00 in0.0 mm 0.00 in/hr0.0 mm/hr 0.00 in0.0 mm
05:15 AM 26.4°F-3.1°C 18.6°F-7.4°C 72% 8.0 mph SSW12.9 kmh SSW 14.0 mph22.5 kmh 30.36 in1028.1 mb 0.00 in0.0 mm 0.00 in/hr0.0 mm/hr 0.00 in0.0 mm
05:00 AM 26.2°F-3.2°C 18.4°F-7.6°C 72% 7.0 mph SSW11.3 kmh SSW 15.0 mph24.1 kmh 30.36 in1028.1 mb 0.00 in0.0 mm 0.00 in/hr0.0 mm/hr 0.00 in0.0 mm
04:45 AM 26.4°F-3.1°C 18.6°F-7.4°C 72% 7.0 mph SSW11.3 kmh SSW 12.0 mph19.3 kmh 30.36 in1028.1 mb 0.00 in0.0 mm 0.00 in/hr0.0 mm/hr 0.00 in0.0 mm
04:30 AM 26.4°F-3.1°C 18.6°F-7.4°C 72% 7.0 mph SSW11.3 kmh SSW 11.0 mph17.7 kmh 30.37 in1028.4 mb 0.00 in0.0 mm 0.00 in/hr0.0 mm/hr 0.00 in0.0 mm
04:15 AM 26.4°F-3.1°C 18.6°F-7.4°C 72% 7.0 mph SSW11.3 kmh SSW 12.0 mph19.3 kmh 30.37 in1028.4 mb 0.00 in0.0 mm 0.00 in/hr0.0 mm/hr 0.00 in0.0 mm
04:00 AM 26.2°F-3.2°C 18.4°F-7.6°C 72% 7.0 mph SSW11.3 kmh SSW 13.0 mph20.9 kmh 30.37 in1028.4 mb 0.00 in0.0 mm 0.00 in/hr0.0 mm/hr 0.00 in0.0 mm
03:45 AM 25.3°F-3.7°C 18.2°F-7.7°C 74% 6.0 mph SSW9.7 kmh SSW 12.0 mph19.3 kmh 30.38 in1028.8 mb 0.00 in0.0 mm 0.00 in/hr0.0 mm/hr 0.00 in0.0 mm
03:30 AM 24.6°F-4.1°C 17.5°F-8.1°C 74% 7.0 mph SSW11.3 kmh SSW 12.0 mph19.3 kmh 30.39 in1029.1 mb 0.00 in0.0 mm 0.00 in/hr0.0 mm/hr 0.00 in0.0 mm
03:15 AM 24.3°F-4.3°C 16.9°F-8.4°C 73% 6.0 mph SSW9.7 kmh SSW 9.0 mph14.5 kmh 30.40 in1029.5 mb 0.00 in0.0 mm 0.00 in/hr0.0 mm/hr 0.00 in0.0 mm
03:00 AM 24.4°F-4.2°C 17.0°F-8.3°C 73% 7.0 mph SSW11.3 kmh SSW 11.0 mph17.7 kmh 30.40 in1029.5 mb 0.00 in0.0 mm 0.00 in/hr0.0 mm/hr 0.00 in0.0 mm
02:45 AM 24.0°F-4.4°C 16.3°F-8.7°C 72% 6.0 mph SSW9.7 kmh SSW 10.0 mph16.1 kmh 30.41 in1029.8 mb 0.00 in0.0 mm 0.00 in/hr0.0 mm/hr 0.00 in0.0 mm
02:30 AM 23.9°F-4.5°C 16.2°F-8.8°C 72% 6.0 mph SSW9.7 kmh SSW 10.0 mph16.1 kmh 30.42 in1030.1 mb 0.00 in0.0 mm 0.00 in/hr0.0 mm/hr 0.00 in0.0 mm
02:15 AM 24.0°F-4.4°C 16.0°F-8.9°C 71% 7.0 mph S11.3 kmh S 9.0 mph14.5 kmh 30.43 in1030.5 mb 0.00 in0.0 mm 0.00 in/hr0.0 mm/hr 0.00 in0.0 mm
02:00 AM 24.0°F-4.4°C 15.6°F-9.1°C 70% 7.0 mph S11.3 kmh S 13.0 mph20.9 kmh 30.44 in1030.8 mb 0.00 in0.0 mm 0.00 in/hr0.0 mm/hr 0.00 in0.0 mm
01:45 AM 24.0°F-4.4°C 15.6°F-9.1°C 70% 6.0 mph S9.7 kmh S 10.0 mph16.1 kmh 30.45 in1031.2 mb 0.00 in0.0 mm 0.00 in/hr0.0 mm/hr 0.00 in0.0 mm
01:30 AM 23.8°F-4.6°C 15.4°F-9.2°C 70% 6.0 mph S9.7 kmh S 9.0 mph14.5 kmh 30.45 in1031.2 mb 0.00 in0.0 mm 0.00 in/hr0.0 mm/hr 0.00 in0.0 mm
01:15 AM 23.3°F-4.8°C 15.0°F-9.4°C 70% 5.0 mph S8.0 kmh S 9.0 mph14.5 kmh 30.45 in1031.2 mb 0.00 in0.0 mm 0.00 in/hr0.0 mm/hr 0.00 in0.0 mm
01:00 AM 23.1°F-4.9°C 14.8°F-9.6°C 70% 5.0 mph S8.0 kmh S 8.0 mph12.9 kmh 30.46 in1031.5 mb 0.00 in0.0 mm 0.00 in/hr0.0 mm/hr 0.00 in0.0 mm
12:45 AM 23.3°F-4.8°C 14.3°F-9.8°C 68% 6.0 mph S9.7 kmh S 11.0 mph17.7 kmh 30.46 in1031.5 mb 0.00 in0.0 mm 0.00 in/hr0.0 mm/hr 0.00 in0.0 mm
12:30 AM 23.2°F-4.9°C 14.2°F-9.9°C 68% 6.0 mph S9.7 kmh S 10.0 mph16.1 kmh 30.46 in1031.5 mb 0.00 in0.0 mm 0.00 in/hr0.0 mm/hr 0.00 in0.0 mm
12:15 AM 23.0°F-5.0°C 14.0°F-10.0°C 68% 5.0 mph S8.0 kmh S 8.0 mph12.9 kmh 30.47 in1031.8 mb 0.00 in0.0 mm 0.00 in/hr0.0 mm/hr 0.00 in0.0 mm
12:00 AM 23.2°F-4.9°C 14.2°F-9.9°C 68% 5.0 mph S8.0 kmh S 9.0 mph14.5 kmh 30.48 in1032.2 mb 0.00 in0.0 mm 0.00 in/hr0.0 mm/hr 0.00 in0.0 mm